createdAt,value
2019-02-24T00:02:00.028Z,53.44
2019-02-24T00:04:30.916Z,53.41
2019-02-24T00:07:01.896Z,53.41
2019-02-24T00:09:32.755Z,53.53
2019-02-24T00:12:03.679Z,53.54
2019-02-24T00:14:34.586Z,53.54
2019-02-24T00:17:05.605Z,53.54
2019-02-24T00:19:36.502Z,53.65
2019-02-24T00:22:07.546Z,53.73
2019-02-24T00:24:38.457Z,53.76
2019-02-24T00:27:09.464Z,54.05
2019-02-24T00:29:40.351Z,53.85
2019-02-24T00:32:11.898Z,53.90
2019-02-24T00:34:42.818Z,54.00
2019-02-24T00:37:13.756Z,53.97
2019-02-24T00:39:44.709Z,53.86
2019-02-24T00:42:15.840Z,53.86
2019-02-24T00:44:46.764Z,54.09
2019-02-24T00:47:17.737Z,54.31
2019-02-24T00:49:48.649Z,54.31
2019-02-24T00:52:19.590Z,54.35
2019-02-24T00:54:50.479Z,54.38
2019-02-24T00:57:21.467Z,54.39
2019-02-24T00:59:52.902Z,54.45
2019-02-24T01:02:23.856Z,54.53
2019-02-24T01:04:54.754Z,54.55
2019-02-24T01:07:25.678Z,54.68
2019-02-24T01:10:01.386Z,54.66
2019-02-24T01:12:32.700Z,54.80
2019-02-24T01:15:03.693Z,54.97
2019-02-24T01:17:35.105Z,55.07
2019-02-24T01:20:08.607Z,55.07
2019-02-24T01:22:40.980Z,55.02
2019-02-24T01:25:11.906Z,55.10
2019-02-24T01:27:42.834Z,54.95
2019-02-24T01:30:13.734Z,55.04
2019-02-24T01:32:44.678Z,55.11
2019-02-24T01:35:15.570Z,55.21
2019-02-24T01:37:46.556Z,55.35
2019-02-24T01:40:17.462Z,55.37
2019-02-24T01:42:48.397Z,55.46
2019-02-24T01:45:19.290Z,55.50
2019-02-24T01:47:50.279Z,55.58
2019-02-24T01:50:21.190Z,55.58
2019-02-24T01:52:52.115Z,55.58
2019-02-24T01:55:23.056Z,55.47
2019-02-24T01:57:55.428Z,55.51
2019-02-24T02:00:26.433Z,55.61
2019-02-24T02:02:57.428Z,55.72
2019-02-24T02:05:28.397Z,55.64
2019-02-24T02:07:59.361Z,55.62
2019-02-24T02:10:30.319Z,55.58
2019-02-24T02:13:01.270Z,55.52
2019-02-24T02:15:32.215Z,55.52
2019-02-24T02:18:03.297Z,55.84
2019-02-24T02:20:34.195Z,55.99
2019-02-24T02:23:05.118Z,56.10
2019-02-24T02:25:36.035Z,56.16
2019-02-24T02:28:06.929Z,56.11
2019-02-24T02:30:37.835Z,56.21
2019-02-24T02:33:08.771Z,56.23
2019-02-24T02:35:39.678Z,56.41
2019-02-24T02:38:10.631Z,56.60
2019-02-24T02:40:41.523Z,56.60
2019-02-24T02:43:12.824Z,56.64
2019-02-24T02:45:43.706Z,56.66
2019-02-24T02:48:14.687Z,56.70
2019-02-24T02:50:45.568Z,56.66
2019-02-24T02:53:16.526Z,57.03
2019-02-24T02:55:47.458Z,57.25
2019-02-24T02:58:19.210Z,57.25
2019-02-24T03:00:50.143Z,57.37
2019-02-24T03:03:21.207Z,57.37
2019-02-24T03:06:10.150Z,57.64
2019-02-24T03:08:48.709Z,57.64
2019-02-24T03:11:19.631Z,57.81
2019-02-24T03:13:50.573Z,57.96
2019-02-24T03:16:23.241Z,58.04
2019-02-24T03:18:54.156Z,58.13
2019-02-24T03:21:25.130Z,58.22
2019-02-24T03:23:56.129Z,58.29
2019-02-24T03:26:27.005Z,58.35
2019-02-24T03:29:04.055Z,58.35
2019-02-24T03:31:30.604Z,58.53
2019-02-24T03:34:01.619Z,58.61
2019-02-24T03:36:32.529Z,58.52
2019-02-24T03:39:03.899Z,58.63
2019-02-24T03:41:34.794Z,58.51
2019-02-24T03:44:05.716Z,58.63
2019-02-24T03:46:36.606Z,58.85
2019-02-24T03:49:07.537Z,58.92
2019-02-24T03:51:38.447Z,58.92
2019-02-24T03:54:09.368Z,59.15
2019-02-24T03:56:40.353Z,59.12
2019-02-24T03:59:15.308Z,59.11
2019-02-24T04:01:44.867Z,59.09
2019-02-24T04:04:15.808Z,59.13
2019-02-24T04:06:46.724Z,59.21
2019-02-24T04:09:17.710Z,59.36
2019-02-24T04:11:48.610Z,59.44
2019-02-24T04:14:19.550Z,59.65
2019-02-24T04:16:50.513Z,59.65
2019-02-24T04:19:21.460Z,59.72
2019-02-24T04:21:53.025Z,59.83
2019-02-24T04:24:23.948Z,59.83
2019-02-24T04:26:54.853Z,59.98
2019-02-24T04:29:25.845Z,60.07
2019-02-24T04:31:56.810Z,60.14
2019-02-24T04:34:27.752Z,60.07
2019-02-24T04:36:58.646Z,60.16
2019-02-24T04:39:29.559Z,60.30
2019-02-24T04:42:00.506Z,60.39
2019-02-24T04:44:31.459Z,60.43
2019-02-24T04:47:02.411Z,60.43
2019-02-24T04:49:33.473Z,60.86
2019-02-24T04:52:04.360Z,60.89
2019-02-24T04:54:35.291Z,61.30
2019-02-24T04:57:06.179Z,61.31
2019-02-24T04:59:37.113Z,61.31
2019-02-24T05:02:08.087Z,61.65
2019-02-24T05:04:39.021Z,61.65
2019-02-24T05:07:09.921Z,61.80
2019-02-24T05:09:40.847Z,61.80
2019-02-24T05:12:11.741Z,61.94
2019-02-24T05:14:42.685Z,62.08
2019-02-24T05:17:13.627Z,62.20
2019-02-24T05:19:44.573Z,62.39
2019-02-24T05:22:15.473Z,62.39
2019-02-24T05:24:46.415Z,62.41
2019-02-24T05:27:17.326Z,62.46
2019-02-24T05:29:48.240Z,62.49
2019-02-24T05:32:19.152Z,62.27
2019-02-24T05:34:50.130Z,62.27
2019-02-24T05:37:21.028Z,62.58
2019-02-24T05:39:52.000Z,62.73
2019-02-24T05:42:22.909Z,62.58
2019-02-24T05:44:53.854Z,62.72
2019-02-24T05:47:24.766Z,62.72
2019-02-24T05:49:55.729Z,62.94
2019-02-24T05:52:26.621Z,62.94
2019-02-24T05:54:57.599Z,63.10
2019-02-24T05:57:28.561Z,63.23
2019-02-24T05:59:59.514Z,63.20
2019-02-24T06:02:30.429Z,63.46
2019-02-24T06:05:01.382Z,63.47
2019-02-24T06:07:33.263Z,63.36
2019-02-24T06:10:04.789Z,63.36
2019-02-24T06:12:35.772Z,63.56
2019-02-24T06:15:07.096Z,63.68
2019-02-24T06:17:37.993Z,63.72
2019-02-24T06:20:08.959Z,63.86
2019-02-24T06:22:39.932Z,63.83
2019-02-24T06:25:10.859Z,63.80
2019-02-24T06:27:41.743Z,63.74
2019-02-24T06:30:12.694Z,63.71
2019-02-24T06:32:43.591Z,63.73
2019-02-24T06:35:14.552Z,63.65
2019-02-24T06:37:45.456Z,63.55
2019-02-24T06:40:16.456Z,63.53
2019-02-24T06:42:47.422Z,63.34
2019-02-24T06:45:18.359Z,63.31
2019-02-24T06:47:49.256Z,63.24
2019-02-24T06:50:20.272Z,63.19
2019-02-24T06:52:51.184Z,63.06
2019-02-24T06:55:22.120Z,62.82
2019-02-24T06:57:53.012Z,62.82
2019-02-24T07:00:25.774Z,62.77
2019-02-24T07:02:56.673Z,62.72
2019-02-24T07:05:27.655Z,62.72
2019-02-24T07:07:58.621Z,62.59
2019-02-24T07:10:29.567Z,62.67
2019-02-24T07:13:00.490Z,62.66
2019-02-24T07:15:31.452Z,62.61
2019-02-24T07:18:02.450Z,62.66
2019-02-24T07:20:33.446Z,62.57
2019-02-24T07:23:04.339Z,62.67
2019-02-24T07:25:35.271Z,62.72
2019-02-24T07:28:06.207Z,62.79
2019-02-24T07:30:37.118Z,62.80
2019-02-24T07:33:08.038Z,62.79
2019-02-24T07:35:39.010Z,62.87
2019-02-24T07:38:09.915Z,62.81
2019-02-24T07:40:40.851Z,62.71
2019-02-24T07:43:11.786Z,62.46
2019-02-24T07:45:42.709Z,62.31
2019-02-24T07:48:13.709Z,62.09
2019-02-24T07:50:44.793Z,61.66
2019-02-24T07:53:15.709Z,61.09
2019-02-24T07:55:46.667Z,60.61
2019-02-24T07:58:17.650Z,60.38
2019-02-24T08:00:48.600Z,60.06
2019-02-24T08:03:19.523Z,59.82
2019-02-24T08:05:50.468Z,59.50
2019-02-24T08:08:21.371Z,59.02
2019-02-24T08:10:52.318Z,58.65
2019-02-24T08:13:23.222Z,58.06
2019-02-24T08:15:54.184Z,57.48
2019-02-24T08:18:25.077Z,56.92
2019-02-24T08:20:56.086Z,56.29
2019-02-24T08:23:27.109Z,55.84
2019-02-24T08:25:58.058Z,55.27
2019-02-24T08:28:28.980Z,54.38
2019-02-24T08:30:59.987Z,53.98
2019-02-24T08:33:30.895Z,53.45
2019-02-24T08:36:01.865Z,52.99
2019-02-24T08:38:32.767Z,52.73
2019-02-24T08:41:06.038Z,52.51
2019-02-24T08:43:36.955Z,52.29
2019-02-24T08:46:07.898Z,52.33
2019-02-24T08:48:43.881Z,52.18
2019-02-24T08:51:14.815Z,52.17
2019-02-24T08:53:46.114Z,52.18
2019-02-24T08:56:17.215Z,52.30
2019-02-24T08:58:48.111Z,52.48
2019-02-24T09:01:19.160Z,52.76
2019-02-24T09:03:50.080Z,52.91
2019-02-24T09:06:21.035Z,52.98
2019-02-24T09:08:53.228Z,53.03
2019-02-24T09:11:24.396Z,53.10
2019-02-24T09:13:55.306Z,53.22
2019-02-24T09:16:26.247Z,53.17
2019-02-24T09:18:57.148Z,53.10
2019-02-24T09:21:28.100Z,53.04
2019-02-24T09:23:59.014Z,53.15
2019-02-24T09:26:29.951Z,53.37
2019-02-24T09:29:00.864Z,53.66
2019-02-24T09:31:31.795Z,53.76
2019-02-24T09:34:02.719Z,53.93
2019-02-24T09:36:33.683Z,54.01
2019-02-24T09:39:05.249Z,53.88
2019-02-24T09:41:36.021Z,53.81
2019-02-24T09:44:06.939Z,53.62
2019-02-24T09:46:37.880Z,53.64
2019-02-24T09:49:08.822Z,53.49
2019-02-24T09:51:39.780Z,53.31
2019-02-24T09:54:10.815Z,53.17
2019-02-24T09:56:44.683Z,52.97
2019-02-24T09:59:16.125Z,53.00
2019-02-24T10:01:47.093Z,52.68
2019-02-24T10:04:18.029Z,52.37
2019-02-24T10:06:49.021Z,52.38
2019-02-24T10:09:20.012Z,52.52
2019-02-24T10:11:54.351Z,52.32
2019-02-24T10:14:26.565Z,52.18
2019-02-24T10:16:57.613Z,52.22
2019-02-24T10:19:31.249Z,52.05
2019-02-24T10:22:02.346Z,52.01
2019-02-24T10:24:33.343Z,52.16
2019-02-24T10:27:04.310Z,52.01
2019-02-24T10:29:35.332Z,51.95
2019-02-24T10:32:06.958Z,51.46
2019-02-24T10:34:37.891Z,51.54
2019-02-24T10:37:08.866Z,51.38
2019-02-24T10:39:39.773Z,51.22
2019-02-24T10:42:15.467Z,51.52
2019-02-24T10:44:47.700Z,51.18
2019-02-24T10:47:18.712Z,51.20
2019-02-24T10:49:49.619Z,51.03
2019-02-24T10:52:20.577Z,50.94
2019-02-24T10:54:51.464Z,50.92
2019-02-24T10:57:22.399Z,51.14
2019-02-24T10:59:53.301Z,51.09
2019-02-24T11:02:24.220Z,50.99
2019-02-24T11:04:55.118Z,50.96
2019-02-24T11:07:26.136Z,50.68
2019-02-24T11:09:57.148Z,50.72
2019-02-24T11:12:28.090Z,50.75
2019-02-24T11:14:59.010Z,50.49
2019-02-24T11:17:29.954Z,50.17
2019-02-24T11:20:00.959Z,50.04
2019-02-24T11:22:31.948Z,50.05
2019-02-24T11:25:02.945Z,50.07
2019-02-24T11:27:34.854Z,50.01
2019-02-24T11:30:08.405Z,50.37
2019-02-24T11:32:39.500Z,50.29
2019-02-24T11:35:11.862Z,50.83
2019-02-24T11:37:42.942Z,50.99
2019-02-24T11:40:19.983Z,50.14
2019-02-24T11:42:50.961Z,50.03
2019-02-24T11:45:21.920Z,49.93
2019-02-24T11:47:52.851Z,49.01
2019-02-24T11:50:23.815Z,48.52
2019-02-24T11:52:54.774Z,47.60
2019-02-24T11:55:26.038Z,47.65
2019-02-24T11:57:56.966Z,47.44
2019-02-24T12:00:27.873Z,47.59
2019-02-24T12:02:59.649Z,46.56
2019-02-24T12:05:30.650Z,44.79
2019-02-24T12:08:01.593Z,44.77
2019-02-24T12:10:32.505Z,45.08
2019-02-24T12:13:03.516Z,44.92
2019-02-24T12:15:35.212Z,44.00
2019-02-24T12:18:06.136Z,43.70
2019-02-24T12:20:37.103Z,43.77
2019-02-24T12:23:08.057Z,42.71
2019-02-24T12:25:38.965Z,42.49
2019-02-24T12:28:09.898Z,42.01
2019-02-24T12:30:40.803Z,43.04
2019-02-24T12:33:11.752Z,43.30
2019-02-24T12:35:42.786Z,44.06
2019-02-24T12:38:13.962Z,44.25
2019-02-24T12:40:45.036Z,44.32
2019-02-24T12:43:16.050Z,44.82
2019-02-24T12:45:47.122Z,44.67
2019-02-24T12:48:18.132Z,44.58
2019-02-24T12:50:49.078Z,44.58
2019-02-24T12:53:20.080Z,43.44
2019-02-24T12:55:51.145Z,43.14
2019-02-24T12:58:22.205Z,42.64
2019-02-24T13:00:53.844Z,42.71
2019-02-24T13:03:24.819Z,42.22
2019-02-24T13:05:55.879Z,42.14
2019-02-24T13:08:26.880Z,41.69
2019-02-24T13:10:57.953Z,41.46
2019-02-24T13:13:28.928Z,41.61
2019-02-24T13:15:59.982Z,41.60
2019-02-24T13:18:31.080Z,42.25
2019-02-24T13:21:02.128Z,42.99
2019-02-24T13:23:35.135Z,42.93
2019-02-24T13:26:05.799Z,42.42
2019-02-24T13:28:36.870Z,42.52
2019-02-24T13:31:07.780Z,43.01
2019-02-24T13:33:38.718Z,43.05
2019-02-24T13:36:09.624Z,42.97
2019-02-24T13:38:40.587Z,43.33
2019-02-24T13:41:11.573Z,43.49
2019-02-24T13:43:42.516Z,43.36
2019-02-24T13:46:13.430Z,42.80
2019-02-24T13:48:44.363Z,42.78
2019-02-24T13:51:15.272Z,42.47
2019-02-24T13:53:46.237Z,42.15
2019-02-24T13:56:17.137Z,41.77
2019-02-24T13:58:48.843Z,42.23
2019-02-24T14:01:19.753Z,41.70
2019-02-24T14:03:51.485Z,41.76
2019-02-24T14:06:22.399Z,41.49
2019-02-24T14:08:53.342Z,41.33
2019-02-24T14:11:24.265Z,41.26
2019-02-24T14:13:55.204Z,41.26
2019-02-24T14:16:26.117Z,41.67
2019-02-24T14:18:57.130Z,41.56
2019-02-24T14:21:28.044Z,41.51
2019-02-24T14:23:59.002Z,40.97
2019-02-24T14:26:29.915Z,40.37
2019-02-24T14:29:00.841Z,40.47
2019-02-24T14:31:31.745Z,40.17
2019-02-24T14:34:02.684Z,40.13
2019-02-24T14:36:33.606Z,39.38
2019-02-24T14:39:05.590Z,38.60
2019-02-24T14:41:36.496Z,38.42
2019-02-24T14:44:07.449Z,38.18
2019-02-24T14:46:38.365Z,38.14
2019-02-24T14:49:09.313Z,37.60
2019-02-24T14:51:40.217Z,37.32
2019-02-24T14:54:11.194Z,36.94
2019-02-24T14:56:42.112Z,36.73
2019-02-24T14:59:13.086Z,36.22
2019-02-24T15:01:44.026Z,36.60
2019-02-24T15:04:14.988Z,35.92
2019-02-24T15:06:46.021Z,35.82
2019-02-24T15:09:17.372Z,35.52
2019-02-24T15:11:48.282Z,35.34
2019-02-24T15:14:19.256Z,35.27
2019-02-24T15:16:50.205Z,35.69
2019-02-24T15:19:21.160Z,35.64
2019-02-24T15:21:52.081Z,35.79
2019-02-24T15:24:23.074Z,36.00
2019-02-24T15:26:53.970Z,36.18
2019-02-24T15:29:24.914Z,36.36
2019-02-24T15:31:55.830Z,36.43
2019-02-24T15:34:26.851Z,36.66
2019-02-24T15:36:57.763Z,36.93
2019-02-24T15:39:28.716Z,36.88
2019-02-24T15:41:59.632Z,36.85
2019-02-24T15:44:30.571Z,36.96
2019-02-24T15:47:01.485Z,37.16
2019-02-24T15:49:32.406Z,37.11
2019-02-24T15:52:09.760Z,37.09
2019-02-24T15:54:36.101Z,37.21
2019-02-24T15:57:07.008Z,36.86
2019-02-24T15:59:37.936Z,37.13
2019-02-24T16:02:09.191Z,37.03
2019-02-24T16:04:40.967Z,37.14
2019-02-24T16:07:11.876Z,37.29
2019-02-24T16:09:42.830Z,37.18
2019-02-24T16:12:13.747Z,37.72
2019-02-24T16:14:44.733Z,37.77
2019-02-24T16:17:15.661Z,38.02
2019-02-24T16:19:53.693Z,38.45
2019-02-24T16:22:24.615Z,38.65
2019-02-24T16:24:55.587Z,38.82
2019-02-24T16:27:26.497Z,38.99
2019-02-24T16:29:57.507Z,39.38
2019-02-24T16:32:28.412Z,39.75
2019-02-24T16:34:59.352Z,39.98
2019-02-24T16:37:30.253Z,40.04
2019-02-24T16:40:01.232Z,40.22
2019-02-24T16:42:32.173Z,40.33
2019-02-24T16:45:03.200Z,40.38
2019-02-24T16:47:34.128Z,40.57
2019-02-24T16:50:07.883Z,40.56
2019-02-24T16:52:38.826Z,40.63
2019-02-24T16:55:14.562Z,40.68
2019-02-24T16:57:45.492Z,40.57
2019-02-24T17:00:21.340Z,40.64
2019-02-24T17:02:52.244Z,40.66
2019-02-24T17:05:23.251Z,40.79
2019-02-24T17:07:54.159Z,40.94
2019-02-24T17:10:29.668Z,40.78
2019-02-24T17:13:01.888Z,40.80
2019-02-24T17:15:33.035Z,40.80
2019-02-24T17:18:03.941Z,40.86
2019-02-24T17:20:34.934Z,40.97
2019-02-24T17:23:05.904Z,40.98
2019-02-24T17:25:36.862Z,40.78
2019-02-24T17:28:07.763Z,40.85
2019-02-24T17:30:38.696Z,40.75
2019-02-24T17:33:09.595Z,40.72
2019-02-24T17:35:40.607Z,40.42
2019-02-24T17:38:11.515Z,40.49
2019-02-24T17:40:42.468Z,40.52
2019-02-24T17:43:13.387Z,40.51
2019-02-24T17:45:44.913Z,40.54
2019-02-24T17:48:15.896Z,40.61
2019-02-24T17:50:46.833Z,40.62
2019-02-24T17:53:17.731Z,40.70
2019-02-24T17:55:48.693Z,40.94
2019-02-24T17:58:19.599Z,40.81
2019-02-24T18:00:58.169Z,40.98
2019-02-24T18:03:29.143Z,41.07
2019-02-24T18:06:00.835Z,41.29
2019-02-24T18:08:31.755Z,41.51
2019-02-24T18:11:02.725Z,41.68
2019-02-24T18:13:33.631Z,41.87
2019-02-24T18:16:04.563Z,42.08
2019-02-24T18:18:35.460Z,42.16
2019-02-24T18:21:06.723Z,42.37
2019-02-24T18:23:37.771Z,42.56
2019-02-24T18:26:08.732Z,42.74
2019-02-24T18:28:39.638Z,42.84
2019-02-24T18:31:10.560Z,43.00
2019-02-24T18:33:48.160Z,43.17
2019-02-24T18:36:14.093Z,43.29
2019-02-24T18:38:45.001Z,43.29
2019-02-24T18:41:16.115Z,43.43
2019-02-24T18:43:47.020Z,43.56
2019-02-24T18:46:17.951Z,43.74
2019-02-24T18:48:48.866Z,43.77
2019-02-24T18:51:19.857Z,43.95
2019-02-24T18:53:50.761Z,44.00
2019-02-24T18:56:21.732Z,43.99
2019-02-24T18:58:52.633Z,44.11
2019-02-24T19:01:23.566Z,44.21
2019-02-24T19:03:57.634Z,44.34
2019-02-24T19:06:27.222Z,44.46
2019-02-24T19:08:58.133Z,44.60
2019-02-24T19:11:29.205Z,44.81
2019-02-24T19:14:00.138Z,44.96
2019-02-24T19:16:31.142Z,45.20
2019-02-24T19:19:02.030Z,45.38
2019-02-24T19:21:32.971Z,45.53
2019-02-24T19:24:03.947Z,45.67
2019-02-24T19:26:34.926Z,45.88
2019-02-24T19:29:05.840Z,46.01
2019-02-24T19:31:36.772Z,46.21
2019-02-24T19:34:07.680Z,46.54
2019-02-24T19:36:38.635Z,46.72
2019-02-24T19:39:12.472Z,46.95
2019-02-24T19:41:43.420Z,47.21
2019-02-24T19:44:14.320Z,47.45
2019-02-24T19:46:45.254Z,47.71
2019-02-24T19:49:16.157Z,48.00
2019-02-24T19:51:47.159Z,48.30
2019-02-24T19:54:18.090Z,48.52
2019-02-24T19:56:49.129Z,48.66
2019-02-24T19:59:20.305Z,48.87
2019-02-24T20:01:51.232Z,49.13
2019-02-24T20:04:22.138Z,49.43
2019-02-24T20:06:53.074Z,49.57
2019-02-24T20:09:23.985Z,49.83
2019-02-24T20:11:54.959Z,50.08
2019-02-24T20:14:25.855Z,50.29
2019-02-24T20:16:56.790Z,50.45
2019-02-24T20:19:27.681Z,50.64
2019-02-24T20:21:58.623Z,50.93
2019-02-24T20:24:33.056Z,51.09
2019-02-24T20:27:02.166Z,51.43
2019-02-24T20:29:33.079Z,51.60
2019-02-24T20:32:04.033Z,51.98
2019-02-24T20:34:34.940Z,52.40
2019-02-24T20:37:05.886Z,52.70
2019-02-24T20:39:36.798Z,52.99
2019-02-24T20:42:07.753Z,53.28
2019-02-24T20:44:38.669Z,53.63
2019-02-24T20:47:09.604Z,54.08
2019-02-24T20:49:40.502Z,54.29
2019-02-24T20:52:11.458Z,54.52
2019-02-24T20:54:42.374Z,54.71
2019-02-24T20:57:13.355Z,54.85
2019-02-24T20:59:44.262Z,55.16
2019-02-24T21:02:15.215Z,55.22
2019-02-24T21:04:46.119Z,55.64
2019-02-24T21:07:17.122Z,56.07
2019-02-24T21:09:48.023Z,56.29
2019-02-24T21:12:18.995Z,56.57
2019-02-24T21:14:49.904Z,56.85
2019-02-24T21:17:20.829Z,56.99
2019-02-24T21:19:51.744Z,57.38
2019-02-24T21:22:22.665Z,57.53
2019-02-24T21:24:53.590Z,57.79
2019-02-24T21:27:24.579Z,57.95
2019-02-24T21:29:55.486Z,58.22
2019-02-24T21:32:26.418Z,58.46
2019-02-24T21:34:57.330Z,58.86
2019-02-24T21:37:28.256Z,59.01
2019-02-24T21:39:59.168Z,59.48
2019-02-24T21:42:30.207Z,59.69
2019-02-24T21:45:01.106Z,60.17
2019-02-24T21:47:32.048Z,60.38
2019-02-24T21:50:02.998Z,60.73
2019-02-24T21:52:33.925Z,61.04
2019-02-24T21:55:05.539Z,61.50
2019-02-24T21:57:36.509Z,61.51
2019-02-24T22:00:15.901Z,61.92
2019-02-24T22:02:46.834Z,62.19
2019-02-24T22:05:17.735Z,62.45
2019-02-24T22:07:49.481Z,62.67
2019-02-24T22:10:20.451Z,62.97
2019-02-24T22:12:51.438Z,63.47
2019-02-24T22:15:26.636Z,63.58
2019-02-24T22:17:57.569Z,63.55
2019-02-24T22:20:28.466Z,63.81
2019-02-24T22:22:59.501Z,64.37
2019-02-24T22:25:30.399Z,64.43
2019-02-24T22:28:01.368Z,64.81
2019-02-24T22:30:32.285Z,65.32
2019-02-24T22:33:03.197Z,65.28
2019-02-24T22:35:34.111Z,66.06
2019-02-24T22:38:05.132Z,66.08
2019-02-24T22:40:36.037Z,66.62
2019-02-24T22:43:07.371Z,66.52
2019-02-24T22:45:38.282Z,67.26
2019-02-24T22:48:09.211Z,67.57
2019-02-24T22:50:40.117Z,67.61
2019-02-24T22:53:11.035Z,67.93
2019-02-24T22:55:41.935Z,68.16
2019-02-24T22:58:12.921Z,68.59
2019-02-24T23:00:53.910Z,69.29
2019-02-24T23:03:30.278Z,69.50
2019-02-24T23:06:01.176Z,69.72
2019-02-24T23:08:32.110Z,70.01
2019-02-24T23:11:03.013Z,70.52
2019-02-24T23:13:33.963Z,70.49
2019-02-24T23:16:04.960Z,70.88
2019-02-24T23:18:35.896Z,70.94
2019-02-24T23:21:06.798Z,71.02
2019-02-24T23:23:37.728Z,71.51
2019-02-24T23:26:08.642Z,71.84
2019-02-24T23:28:39.649Z,72.44
2019-02-24T23:31:10.561Z,72.10
2019-02-24T23:33:41.499Z,72.75
2019-02-24T23:36:12.397Z,73.27
2019-02-24T23:38:43.331Z,73.72
2019-02-24T23:41:14.797Z,73.54
2019-02-24T23:43:45.736Z,73.90
2019-02-24T23:46:16.633Z,73.90
2019-02-24T23:48:47.568Z,74.19
2019-02-24T23:51:18.474Z,74.24
2019-02-24T23:53:49.397Z,74.61
2019-02-24T23:56:20.312Z,75.20
2019-02-24T23:58:51.350Z,75.30
